BWA416 TBPB-TAPA
Flight info
| Callsign | BWA416 |
|---|---|
| Flight time | 0h 50m |
| Altitude | 31000 |
| Route | BGI UA632 ANU |
| Aircraft | B38M/M-SDE1FGHILORVWXY/HB1 |
Departure
| Time | 2026-05-04 23:01 |
|---|---|
| Airport | Grantley Adams International Airport (TBPB) |
Arrival
| Time | 2026-05-04 23:51 |
|---|---|
| Airport | V. C. Bird International Airport (TAPA) |
| Time | Latitude | Longitude | Altitude | Speed | Heading |
|---|---|---|---|---|---|
| 2026-05-04 22:33 | 13.07892 | -59.48687 | 180 ft | 0 kts | 345° |
| 2026-05-04 22:48 | 13.07886 | -59.48686 | 180 ft | 4 kts | 345° |
| 2026-05-04 22:48 | 13.07860 | -59.48679 | 180 ft | 4 kts | 345° |
| 2026-05-04 22:49 | 13.07838 | -59.48673 | 180 ft | 4 kts | 339° |
| 2026-05-04 22:49 | 13.07816 | -59.48659 | 180 ft | 4 kts | 307° |
| 2026-05-04 22:49 | 13.07806 | -59.48635 | 180 ft | 4 kts | 278° |
| 2026-05-04 22:49 | 13.07806 | -59.48607 | 180 ft | 4 kts | 258° |
| 2026-05-04 22:50 | 13.07807 | -59.48602 | 180 ft | 1 kts | 256° |
| 2026-05-04 22:55 | 13.07805 | -59.48613 | 180 ft | 4 kts | 256° |
| 2026-05-04 22:55 | 13.07790 | -59.48669 | 180 ft | 13 kts | 255° |
| 2026-05-04 22:56 | 13.07736 | -59.48787 | 180 ft | 22 kts | 241° |
| 2026-05-04 22:56 | 13.07694 | -59.48943 | 180 ft | 23 kts | 256° |
| 2026-05-04 22:56 | 13.07654 | -59.49111 | 180 ft | 25 kts | 256° |
| 2026-05-04 22:56 | 13.07609 | -59.49288 | 180 ft | 27 kts | 255° |
| 2026-05-04 22:57 | 13.07569 | -59.49459 | 180 ft | 23 kts | 256° |
| 2026-05-04 22:57 | 13.07528 | -59.49625 | 180 ft | 25 kts | 256° |
| 2026-05-04 22:57 | 13.07485 | -59.49801 | 180 ft | 26 kts | 256° |
| 2026-05-04 22:57 | 13.07441 | -59.49989 | 180 ft | 28 kts | 256° |
| 2026-05-04 22:58 | 13.07390 | -59.50184 | 180 ft | 29 kts | 254° |
| 2026-05-04 22:58 | 13.07337 | -59.50389 | 181 ft | 29 kts | 259° |
| 2026-05-04 22:58 | 13.07293 | -59.50583 | 180 ft | 23 kts | 255° |
| 2026-05-04 22:58 | 13.07254 | -59.50715 | 180 ft | 16 kts | 233° |
| 2026-05-04 22:59 | 13.07156 | -59.50716 | 180 ft | 15 kts | 162° |
| 2026-05-04 22:59 | 13.07106 | -59.50679 | 180 ft | 6 kts | 92° |
| 2026-05-04 22:59 | 13.07109 | -59.50664 | 180 ft | 0 kts | 77° |
| 2026-05-04 23:00 | 13.07113 | -59.50644 | 180 ft | 11 kts | 77° |
| 2026-05-04 23:00 | 13.07191 | -59.50322 | 182 ft | 82 kts | 76° |
| 2026-05-04 23:00 | 13.07382 | -59.49544 | 179 ft | 141 kts | 76° |
| 2026-05-04 23:01 | 13.07649 | -59.48479 | 481 ft | 162 kts | 76° |
| 2026-05-04 23:01 | 13.07947 | -59.47311 | 977 ft | 173 kts | 73° |
| 2026-05-04 23:01 | 13.08256 | -59.46148 | 1740 ft | 170 kts | 73° |
| 2026-05-04 23:01 | 13.08611 | -59.44975 | 2393 ft | 174 kts | 71° |
| 2026-05-04 23:02 | 13.09113 | -59.43816 | 2803 ft | 190 kts | 53° |
| 2026-05-04 23:02 | 13.10348 | -59.43210 | 3198 ft | 213 kts | 5° |
| 2026-05-04 23:02 | 13.11859 | -59.43563 | 3724 ft | 235 kts | 337° |
| 2026-05-04 23:02 | 13.13350 | -59.44388 | 4303 ft | 251 kts | 332° |
| 2026-05-04 23:03 | 13.14872 | -59.45327 | 5066 ft | 257 kts | 331° |
| 2026-05-04 23:03 | 13.16439 | -59.46289 | 5720 ft | 271 kts | 332° |
| 2026-05-04 23:03 | 13.18090 | -59.47298 | 6195 ft | 289 kts | 332° |
| 2026-05-04 23:03 | 13.19845 | -59.48367 | 6866 ft | 295 kts | 332° |
| 2026-05-04 23:04 | 13.21617 | -59.49445 | 7631 ft | 298 kts | 332° |
| 2026-05-04 23:04 | 13.23404 | -59.50531 | 8418 ft | 299 kts | 332° |
| 2026-05-04 23:04 | 13.25204 | -59.51625 | 9174 ft | 303 kts | 332° |
| 2026-05-04 23:04 | 13.27025 | -59.52733 | 9939 ft | 305 kts | 332° |
| 2026-05-04 23:05 | 13.28872 | -59.53857 | 10479 ft | 317 kts | 332° |
| 2026-05-04 23:05 | 13.30830 | -59.55047 | 10763 ft | 336 kts | 332° |
| 2026-05-04 23:05 | 13.32879 | -59.56294 | 11151 ft | 349 kts | 332° |
| 2026-05-04 23:05 | 13.34950 | -59.57555 | 11832 ft | 351 kts | 332° |
| 2026-05-04 23:06 | 13.37062 | -59.58840 | 12541 ft | 355 kts | 332° |
| 2026-05-04 23:06 | 13.39198 | -59.60140 | 13269 ft | 358 kts | 332° |
| 2026-05-04 23:06 | 13.41355 | -59.61453 | 13966 ft | 363 kts | 332° |
| 2026-05-04 23:06 | 13.43534 | -59.62781 | 14636 ft | 365 kts | 332° |
| 2026-05-04 23:07 | 13.45722 | -59.64114 | 15350 ft | 366 kts | 331° |
| 2026-05-04 23:07 | 13.47921 | -59.65453 | 16039 ft | 369 kts | 331° |
| 2026-05-04 23:07 | 13.50098 | -59.66780 | 16696 ft | 371 kts | 332° |
| 2026-05-04 23:07 | 13.52325 | -59.68137 | 17355 ft | 373 kts | 331° |
| 2026-05-04 23:08 | 13.54564 | -59.69502 | 17998 ft | 375 kts | 331° |
| 2026-05-04 23:08 | 13.56815 | -59.70876 | 18578 ft | 378 kts | 331° |
| 2026-05-04 23:08 | 13.59078 | -59.72255 | 19100 ft | 380 kts | 331° |
| 2026-05-04 23:08 | 13.61363 | -59.73649 | 19604 ft | 383 kts | 331° |
| 2026-05-04 23:09 | 13.63666 | -59.75054 | 20091 ft | 387 kts | 331° |
| 2026-05-04 23:09 | 13.65991 | -59.76473 | 20571 ft | 390 kts | 331° |
| 2026-05-04 23:09 | 13.68333 | -59.77903 | 21061 ft | 393 kts | 331° |
| 2026-05-04 23:09 | 13.70664 | -59.79326 | 21519 ft | 396 kts | 331° |
| 2026-05-04 23:10 | 13.73038 | -59.80777 | 21996 ft | 400 kts | 331° |
| 2026-05-04 23:10 | 13.75437 | -59.82243 | 22469 ft | 403 kts | 331° |
| 2026-05-04 23:10 | 13.77856 | -59.83720 | 22918 ft | 406 kts | 331° |
| 2026-05-04 23:10 | 13.80295 | -59.85211 | 23364 ft | 409 kts | 331° |
| 2026-05-04 23:11 | 13.82745 | -59.86709 | 23774 ft | 412 kts | 331° |
| 2026-05-04 23:11 | 13.85218 | -59.88221 | 24159 ft | 414 kts | 331° |
| 2026-05-04 23:11 | 13.87701 | -59.89741 | 24565 ft | 416 kts | 331° |
| 2026-05-04 23:11 | 13.90189 | -59.91262 | 24975 ft | 417 kts | 331° |
| 2026-05-04 23:12 | 13.92652 | -59.92770 | 25379 ft | 418 kts | 331° |
| 2026-05-04 23:12 | 13.95152 | -59.94300 | 25751 ft | 421 kts | 331° |
| 2026-05-04 23:12 | 13.97674 | -59.95844 | 26124 ft | 423 kts | 331° |
| 2026-05-04 23:12 | 14.00205 | -59.97395 | 26518 ft | 424 kts | 331° |
| 2026-05-04 23:13 | 14.02745 | -59.98951 | 26908 ft | 426 kts | 330° |
| 2026-05-04 23:13 | 14.05297 | -60.00514 | 27280 ft | 428 kts | 330° |
| 2026-05-04 23:13 | 14.07860 | -60.02085 | 27656 ft | 429 kts | 330° |
| 2026-05-04 23:13 | 14.10432 | -60.03662 | 28037 ft | 431 kts | 330° |
| 2026-05-04 23:14 | 14.13015 | -60.05246 | 28388 ft | 433 kts | 330° |
| 2026-05-04 23:14 | 14.15567 | -60.06812 | 28725 ft | 435 kts | 330° |
| 2026-05-04 23:14 | 14.18173 | -60.08411 | 29075 ft | 437 kts | 330° |
| 2026-05-04 23:14 | 14.20789 | -60.10016 | 29416 ft | 439 kts | 330° |
| 2026-05-04 23:15 | 14.23415 | -60.11628 | 29752 ft | 440 kts | 330° |
| 2026-05-04 23:15 | 14.26053 | -60.13248 | 30080 ft | 442 kts | 330° |
| 2026-05-04 23:15 | 14.28701 | -60.14874 | 30351 ft | 444 kts | 330° |
| 2026-05-04 23:15 | 14.31366 | -60.16512 | 30578 ft | 447 kts | 330° |
| 2026-05-04 23:16 | 14.34043 | -60.18157 | 30867 ft | 448 kts | 330° |
| 2026-05-04 23:16 | 14.36682 | -60.19780 | 31144 ft | 449 kts | 330° |
| 2026-05-04 23:16 | 14.39374 | -60.21435 | 31397 ft | 451 kts | 330° |
| 2026-05-04 23:16 | 14.42076 | -60.23097 | 31656 ft | 453 kts | 330° |
| 2026-05-04 23:17 | 14.44782 | -60.24762 | 31917 ft | 455 kts | 330° |
| 2026-05-04 23:17 | 14.47508 | -60.26440 | 32035 ft | 457 kts | 329° |
| 2026-05-04 23:17 | 14.52963 | -60.29799 | 32021 ft | 455 kts | 329° |
| 2026-05-04 23:18 | 14.58404 | -60.33150 | 32029 ft | 456 kts | 330° |
| 2026-05-04 23:18 | 14.63807 | -60.36481 | 32030 ft | 456 kts | 330° |
| 2026-05-04 23:19 | 14.69176 | -60.39990 | 32032 ft | 457 kts | 328° |
| 2026-05-04 23:19 | 14.74497 | -60.43500 | 32026 ft | 457 kts | 328° |
| 2026-05-04 23:20 | 14.79810 | -60.47001 | 32025 ft | 457 kts | 328° |
| 2026-05-04 23:20 | 14.85170 | -60.50535 | 32035 ft | 457 kts | 328° |
| 2026-05-04 23:21 | 14.90529 | -60.54072 | 32033 ft | 457 kts | 328° |
| 2026-05-04 23:21 | 14.95883 | -60.57606 | 32043 ft | 457 kts | 328° |
| 2026-05-04 23:22 | 15.01190 | -60.61112 | 32043 ft | 458 kts | 328° |
| 2026-05-04 23:22 | 15.06524 | -60.64637 | 32043 ft | 458 kts | 328° |
| 2026-05-04 23:23 | 15.11886 | -60.68184 | 32042 ft | 458 kts | 328° |
| 2026-05-04 23:23 | 15.17254 | -60.71736 | 32043 ft | 458 kts | 328° |
| 2026-05-04 23:24 | 15.22614 | -60.75285 | 32044 ft | 458 kts | 328° |
| 2026-05-04 23:24 | 15.27942 | -60.78816 | 32044 ft | 457 kts | 328° |
| 2026-05-04 23:25 | 15.33299 | -60.82367 | 32046 ft | 458 kts | 328° |
| 2026-05-04 23:25 | 15.38670 | -60.85931 | 32047 ft | 458 kts | 328° |
| 2026-05-04 23:26 | 15.44032 | -60.89490 | 32046 ft | 458 kts | 328° |
| 2026-05-04 23:26 | 15.49396 | -60.93053 | 32044 ft | 458 kts | 328° |
| 2026-05-04 23:27 | 15.54730 | -60.96598 | 32052 ft | 458 kts | 328° |
| 2026-05-04 23:27 | 15.60095 | -61.00166 | 31940 ft | 454 kts | 328° |
| 2026-05-04 23:28 | 15.62742 | -61.01927 | 31219 ft | 454 kts | 328° |
| 2026-05-04 23:28 | 15.65424 | -61.03712 | 30118 ft | 463 kts | 328° |
| 2026-05-04 23:28 | 15.68151 | -61.05528 | 29121 ft | 467 kts | 328° |
| 2026-05-04 23:28 | 15.70880 | -61.07346 | 28478 ft | 463 kts | 328° |
| 2026-05-04 23:29 | 15.73574 | -61.09140 | 27951 ft | 457 kts | 329° |
| 2026-05-04 23:29 | 15.76208 | -61.10896 | 27296 ft | 455 kts | 329° |
| 2026-05-04 23:29 | 15.78900 | -61.12691 | 26633 ft | 454 kts | 329° |
| 2026-05-04 23:29 | 15.81520 | -61.14437 | 25996 ft | 453 kts | 329° |
| 2026-05-04 23:30 | 15.84166 | -61.16203 | 25346 ft | 452 kts | 329° |
| 2026-05-04 23:30 | 15.86807 | -61.17965 | 24704 ft | 452 kts | 329° |
| 2026-05-04 23:30 | 15.89454 | -61.19731 | 24063 ft | 452 kts | 329° |
| 2026-05-04 23:30 | 15.92103 | -61.21500 | 23373 ft | 453 kts | 329° |
| 2026-05-04 23:31 | 15.94752 | -61.23270 | 22639 ft | 452 kts | 329° |
| 2026-05-04 23:31 | 15.97387 | -61.25031 | 22005 ft | 449 kts | 329° |
| 2026-05-04 23:31 | 16.00005 | -61.26781 | 21374 ft | 446 kts | 329° |
| 2026-05-04 23:31 | 16.02571 | -61.28496 | 20762 ft | 443 kts | 329° |
| 2026-05-04 23:32 | 16.05145 | -61.30217 | 20135 ft | 440 kts | 329° |
| 2026-05-04 23:32 | 16.07709 | -61.31932 | 19533 ft | 436 kts | 329° |
| 2026-05-04 23:32 | 16.10237 | -61.33624 | 19068 ft | 430 kts | 328° |
| 2026-05-04 23:32 | 16.12740 | -61.35300 | 18610 ft | 423 kts | 328° |
| 2026-05-04 23:33 | 16.15198 | -61.36946 | 18155 ft | 417 kts | 328° |
| 2026-05-04 23:33 | 16.17620 | -61.38567 | 17643 ft | 411 kts | 328° |
| 2026-05-04 23:33 | 16.20010 | -61.40169 | 17168 ft | 406 kts | 328° |
| 2026-05-04 23:33 | 16.22332 | -61.41725 | 16749 ft | 400 kts | 328° |
| 2026-05-04 23:34 | 16.24658 | -61.43284 | 16367 ft | 394 kts | 328° |
| 2026-05-04 23:34 | 16.26939 | -61.44814 | 16020 ft | 388 kts | 328° |
| 2026-05-04 23:34 | 16.29189 | -61.46323 | 15738 ft | 381 kts | 328° |
| 2026-05-04 23:34 | 16.31391 | -61.47800 | 15528 ft | 372 kts | 328° |
| 2026-05-04 23:35 | 16.33536 | -61.49239 | 15338 ft | 362 kts | 327° |
| 2026-05-04 23:35 | 16.35625 | -61.50642 | 15053 ft | 353 kts | 328° |
| 2026-05-04 23:35 | 16.37659 | -61.52008 | 14778 ft | 343 kts | 328° |
| 2026-05-04 23:35 | 16.39614 | -61.53320 | 14533 ft | 334 kts | 328° |
| 2026-05-04 23:36 | 16.41542 | -61.54617 | 14319 ft | 325 kts | 328° |
| 2026-05-04 23:36 | 16.43413 | -61.55875 | 14114 ft | 316 kts | 328° |
| 2026-05-04 23:36 | 16.45231 | -61.57095 | 13864 ft | 308 kts | 328° |
| 2026-05-04 23:36 | 16.47034 | -61.58307 | 13413 ft | 307 kts | 327° |
| 2026-05-04 23:37 | 16.48820 | -61.59508 | 13007 ft | 305 kts | 328° |
| 2026-05-04 23:37 | 16.50588 | -61.60696 | 12626 ft | 302 kts | 328° |
| 2026-05-04 23:37 | 16.52356 | -61.61886 | 12194 ft | 301 kts | 328° |
| 2026-05-04 23:37 | 16.54068 | -61.63038 | 11948 ft | 293 kts | 328° |
| 2026-05-04 23:38 | 16.55765 | -61.64179 | 11698 ft | 287 kts | 328° |
| 2026-05-04 23:38 | 16.57432 | -61.65301 | 11313 ft | 286 kts | 328° |
| 2026-05-04 23:38 | 16.59093 | -61.66420 | 11079 ft | 282 kts | 328° |
| 2026-05-04 23:38 | 16.60746 | -61.67533 | 10732 ft | 283 kts | 328° |
| 2026-05-04 23:39 | 16.62393 | -61.68642 | 10440 ft | 282 kts | 328° |
| 2026-05-04 23:39 | 16.64039 | -61.69751 | 10163 ft | 280 kts | 328° |
| 2026-05-04 23:39 | 16.65672 | -61.70851 | 9875 ft | 279 kts | 328° |
| 2026-05-04 23:39 | 16.67278 | -61.71933 | 9583 ft | 278 kts | 328° |
| 2026-05-04 23:40 | 16.68898 | -61.73023 | 9214 ft | 279 kts | 328° |
| 2026-05-04 23:40 | 16.70523 | -61.74120 | 8879 ft | 279 kts | 329° |
| 2026-05-04 23:40 | 16.72161 | -61.75225 | 8529 ft | 280 kts | 328° |
| 2026-05-04 23:40 | 16.73773 | -61.76316 | 8391 ft | 272 kts | 328° |
| 2026-05-04 23:41 | 16.75334 | -61.77368 | 8238 ft | 262 kts | 329° |
| 2026-05-04 23:41 | 16.76840 | -61.78386 | 8061 ft | 255 kts | 328° |
| 2026-05-04 23:41 | 16.78328 | -61.79389 | 7724 ft | 254 kts | 329° |
| 2026-05-04 23:41 | 16.79815 | -61.80391 | 7377 ft | 255 kts | 329° |
| 2026-05-04 23:42 | 16.81280 | -61.81380 | 7106 ft | 252 kts | 329° |
| 2026-05-04 23:42 | 16.82749 | -61.82374 | 6817 ft | 249 kts | 328° |
| 2026-05-04 23:42 | 16.84177 | -61.83338 | 6658 ft | 240 kts | 329° |
| 2026-05-04 23:42 | 16.85579 | -61.84284 | 6325 ft | 240 kts | 329° |
| 2026-05-04 23:43 | 16.86980 | -61.85230 | 5980 ft | 240 kts | 329° |
| 2026-05-04 23:43 | 16.88371 | -61.86170 | 5716 ft | 236 kts | 329° |
| 2026-05-04 23:43 | 16.89740 | -61.87094 | 5402 ft | 235 kts | 329° |
| 2026-05-04 23:43 | 16.91088 | -61.88005 | 5278 ft | 224 kts | 329° |
| 2026-05-04 23:44 | 16.92385 | -61.88881 | 5004 ft | 222 kts | 330° |
| 2026-05-04 23:44 | 16.93660 | -61.89744 | 4737 ft | 219 kts | 330° |
| 2026-05-04 23:44 | 16.94923 | -61.90620 | 4484 ft | 216 kts | 323° |
| 2026-05-04 23:44 | 16.95710 | -61.91885 | 4274 ft | 208 kts | 278° |
| 2026-05-04 23:45 | 16.95642 | -61.93372 | 3928 ft | 207 kts | 255° |
| 2026-05-04 23:45 | 16.95427 | -61.94872 | 3533 ft | 212 kts | 277° |
| 2026-05-04 23:45 | 16.96070 | -61.96196 | 3250 ft | 205 kts | 321° |
| 2026-05-04 23:45 | 16.97229 | -61.97057 | 2900 ft | 205 kts | 335° |
| 2026-05-04 23:46 | 16.98543 | -61.97451 | 2636 ft | 194 kts | 5° |
| 2026-05-04 23:46 | 16.99843 | -61.97253 | 2637 ft | 190 kts | 18° |
| 2026-05-04 23:46 | 17.01144 | -61.96955 | 2698 ft | 193 kts | 17° |
| 2026-05-04 23:46 | 17.02466 | -61.96669 | 2654 ft | 194 kts | 19° |
| 2026-05-04 23:47 | 17.03568 | -61.95982 | 2493 ft | 181 kts | 55° |
| 2026-05-04 23:47 | 17.04286 | -61.94907 | 2436 ft | 181 kts | 60° |
| 2026-05-04 23:47 | 17.04990 | -61.93841 | 2393 ft | 167 kts | 59° |
| 2026-05-04 23:47 | 17.05596 | -61.92899 | 2317 ft | 151 kts | 63° |
| 2026-05-04 23:48 | 17.06143 | -61.91978 | 2211 ft | 148 kts | 62° |
| 2026-05-04 23:48 | 17.06680 | -61.91078 | 2127 ft | 147 kts | 64° |
| 2026-05-04 23:48 | 17.07217 | -61.90171 | 2024 ft | 146 kts | 64° |
| 2026-05-04 23:48 | 17.07756 | -61.89257 | 2010 ft | 149 kts | 64° |
| 2026-05-04 23:49 | 17.08329 | -61.88329 | 1969 ft | 153 kts | 63° |
| 2026-05-04 23:49 | 17.08930 | -61.87376 | 1819 ft | 160 kts | 60° |
| 2026-05-04 23:49 | 17.09532 | -61.86410 | 1687 ft | 158 kts | 64° |
| 2026-05-04 23:49 | 17.10086 | -61.85437 | 1457 ft | 155 kts | 65° |
| 2026-05-04 23:50 | 17.10625 | -61.84468 | 1190 ft | 154 kts | 64° |
| 2026-05-04 23:50 | 17.11172 | -61.83529 | 895 ft | 151 kts | 60° |
| 2026-05-04 23:50 | 17.11715 | -61.82596 | 661 ft | 152 kts | 63° |
| 2026-05-04 23:50 | 17.12292 | -61.81629 | 468 ft | 159 kts | 62° |
| 2026-05-04 23:51 | 17.12875 | -61.80634 | 197 ft | 161 kts | 60° |
| 2026-05-04 23:51 | 17.13438 | -61.79657 | 67 ft | 146 kts | 58° |
| 2026-05-04 23:51 | 17.13847 | -61.78971 | 61 ft | 76 kts | 58° |
| 2026-05-04 23:51 | 17.14022 | -61.78677 | 67 ft | 19 kts | 58° |
| 2026-05-04 23:52 | 17.14095 | -61.78685 | 69 ft | 14 kts | 285° |
| 2026-05-04 23:52 | 17.14103 | -61.78760 | 69 ft | 7 kts | 273° |
| 2026-05-04 23:52 | 17.14104 | -61.78766 | 68 ft | 0 kts | 274° |